sensor_id;sensor_type;location;lat;lon;timestamp;pressure;altitude;pressure_sealevel;temperature;humidity
4024;BME280;2026;51.002;13.668;2022-10-16T00:02:19;98865.41;;;11.46;86.20
4024;BME280;2026;51.002;13.668;2022-10-16T00:07:24;98867.38;;;11.39;86.28
4024;BME280;2026;51.002;13.668;2022-10-16T00:12:27;98864.50;;;11.41;85.92
4024;BME280;2026;51.002;13.668;2022-10-16T00:17:30;98875.72;;;11.48;85.37
4024;BME280;2026;51.002;13.668;2022-10-16T00:22:35;98873.78;;;11.43;85.31
4024;BME280;2026;51.002;13.668;2022-10-16T00:27:38;98880.38;;;11.46;85.11
4024;BME280;2026;51.002;13.668;2022-10-16T00:32:40;98876.81;;;11.23;85.97
4024;BME280;2026;51.002;13.668;2022-10-16T00:37:45;98875.44;;;11.20;86.18
4024;BME280;2026;51.002;13.668;2022-10-16T00:42:48;98888.13;;;11.24;86.00
4024;BME280;2026;51.002;13.668;2022-10-16T00:47:52;98899.34;;;11.31;85.64
4024;BME280;2026;51.002;13.668;2022-10-16T00:52:58;98904.97;;;11.23;85.97
4024;BME280;2026;51.002;13.668;2022-10-16T00:58:03;98903.94;;;11.24;85.93
4024;BME280;2026;51.002;13.668;2022-10-16T01:03:26;98905.56;;;11.13;86.02
4024;BME280;2026;51.002;13.668;2022-10-16T01:08:34;98898.56;;;11.18;85.58
4024;BME280;2026;51.002;13.668;2022-10-16T01:13:44;98903.63;;;11.08;85.80
4024;BME280;2026;51.002;13.668;2022-10-16T01:18:52;98894.47;;;11.11;85.59
4024;BME280;2026;51.002;13.668;2022-10-16T01:24:03;98904.97;;;10.99;86.15
4024;BME280;2026;51.002;13.668;2022-10-16T01:29:14;98912.41;;;10.90;87.56
4024;BME280;2026;51.002;13.668;2022-10-16T01:34:22;98918.84;;;11.06;86.61
4024;BME280;2026;51.002;13.668;2022-10-16T01:39:30;98926.59;;;11.01;87.63
4024;BME280;2026;51.002;13.668;2022-10-16T01:44:36;98920.09;;;11.15;87.57
4024;BME280;2026;51.002;13.668;2022-10-16T01:49:42;98922.13;;;11.25;87.87
4024;BME280;2026;51.002;13.668;2022-10-16T01:54:47;98911.84;;;11.24;88.51
4024;BME280;2026;51.002;13.668;2022-10-16T01:59:56;98915.13;;;11.31;88.94
4024;BME280;2026;51.002;13.668;2022-10-16T02:05:05;98914.31;;;11.30;89.31
4024;BME280;2026;51.002;13.668;2022-10-16T02:10:11;98909.63;;;11.44;89.42
4024;BME280;2026;51.002;13.668;2022-10-16T02:15:15;98923.72;;;11.96;89.73
4024;BME280;2026;51.002;13.668;2022-10-16T02:20:22;98927.00;;;11.86;88.92
4024;BME280;2026;51.002;13.668;2022-10-16T02:25:30;98922.38;;;11.94;89.42
4024;BME280;2026;51.002;13.668;2022-10-16T02:30:39;98918.66;;;11.78;88.38
4024;BME280;2026;51.002;13.668;2022-10-16T02:35:44;98922.78;;;11.73;87.83
4024;BME280;2026;51.002;13.668;2022-10-16T02:40:49;98928.34;;;11.60;87.92
4024;BME280;2026;51.002;13.668;2022-10-16T02:45:53;98922.53;;;11.46;88.86
4024;BME280;2026;51.002;13.668;2022-10-16T02:50:56;98927.75;;;11.58;88.41
4024;BME280;2026;51.002;13.668;2022-10-16T02:55:59;98922.59;;;11.63;88.00
4024;BME280;2026;51.002;13.668;2022-10-16T03:01:04;98914.03;;;11.56;88.65
4024;BME280;2026;51.002;13.668;2022-10-16T03:06:06;98909.41;;;11.63;89.26
4024;BME280;2026;51.002;13.668;2022-10-16T03:11:10;98905.34;;;11.55;90.47
4024;BME280;2026;51.002;13.668;2022-10-16T03:16:14;98918.47;;;11.67;90.12
4024;BME280;2026;51.002;13.668;2022-10-16T03:21:17;98944.03;;;11.55;89.05
4024;BME280;2026;51.002;13.668;2022-10-16T03:26:20;98945.56;;;11.51;88.34
4024;BME280;2026;51.002;13.668;2022-10-16T03:31:24;98937.41;;;11.52;88.27
4024;BME280;2026;51.002;13.668;2022-10-16T03:36:27;98936.47;;;11.58;87.96
4024;BME280;2026;51.002;13.668;2022-10-16T03:41:30;98933.13;;;11.63;88.30
4024;BME280;2026;51.002;13.668;2022-10-16T03:46:34;98938.78;;;11.55;88.56
4024;BME280;2026;51.002;13.668;2022-10-16T03:51:37;98949.31;;;11.55;88.77
4024;BME280;2026;51.002;13.668;2022-10-16T03:56:40;98944.41;;;11.46;88.58
4024;BME280;2026;51.002;13.668;2022-10-16T04:01:44;98948.88;;;11.46;88.49
4024;BME280;2026;51.002;13.668;2022-10-16T04:06:47;98960.69;;;11.43;88.73
4024;BME280;2026;51.002;13.668;2022-10-16T04:11:50;98961.38;;;11.51;89.03
4024;BME280;2026;51.002;13.668;2022-10-16T04:16:54;98979.88;;;11.56;88.66
4024;BME280;2026;51.002;13.668;2022-10-16T04:21:57;98981.81;;;11.60;88.18
4024;BME280;2026;51.002;13.668;2022-10-16T04:27:00;98973.16;;;11.48;88.99
4024;BME280;2026;51.002;13.668;2022-10-16T04:32:05;98961.69;;;11.54;89.57
4024;BME280;2026;51.002;13.668;2022-10-16T04:37:07;98974.75;;;11.90;89.43
4024;BME280;2026;51.002;13.668;2022-10-16T04:42:10;98983.41;;;11.61;89.34
4024;BME280;2026;51.002;13.668;2022-10-16T04:47:15;98973.03;;;11.55;89.13
4024;BME280;2026;51.002;13.668;2022-10-16T04:52:18;98987.56;;;11.57;89.59
4024;BME280;2026;51.002;13.668;2022-10-16T04:57:23;98983.88;;;11.58;89.57
4024;BME280;2026;51.002;13.668;2022-10-16T05:02:27;98979.09;;;11.55;89.56
4024;BME280;2026;51.002;13.668;2022-10-16T05:07:30;98976.88;;;11.64;90.59
4024;BME280;2026;51.002;13.668;2022-10-16T05:12:33;98987.41;;;11.64;89.83
4024;BME280;2026;51.002;13.668;2022-10-16T05:17:38;98987.41;;;11.64;89.14
4024;BME280;2026;51.002;13.668;2022-10-16T05:22:45;99002.22;;;11.53;89.93
4024;BME280;2026;51.002;13.668;2022-10-16T05:27:48;99010.00;;;11.60;89.46
4024;BME280;2026;51.002;13.668;2022-10-16T05:32:53;99012.50;;;11.67;89.47
4024;BME280;2026;51.002;13.668;2022-10-16T05:37:56;98998.84;;;11.70;89.04
4024;BME280;2026;51.002;13.668;2022-10-16T05:42:59;99005.97;;;11.69;89.21
4024;BME280;2026;51.002;13.668;2022-10-16T05:48:04;99021.63;;;11.76;89.70
4024;BME280;2026;51.002;13.668;2022-10-16T05:53:07;99024.97;;;11.71;89.79
4024;BME280;2026;51.002;13.668;2022-10-16T05:58:10;99041.09;;;11.87;89.05
4024;BME280;2026;51.002;13.668;2022-10-16T06:03:14;99036.72;;;11.93;89.16
4024;BME280;2026;51.002;13.668;2022-10-16T06:08:17;99038.88;;;12.08;88.13
4024;BME280;2026;51.002;13.668;2022-10-16T06:13:20;99044.91;;;12.08;88.37
4024;BME280;2026;51.002;13.668;2022-10-16T06:18:24;99049.41;;;12.08;88.09
4024;BME280;2026;51.002;13.668;2022-10-16T06:23:28;99056.56;;;12.24;88.00
4024;BME280;2026;51.002;13.668;2022-10-16T06:28:31;99064.28;;;12.43;86.81
4024;BME280;2026;51.002;13.668;2022-10-16T06:33:36;99069.94;;;12.35;87.10
4024;BME280;2026;51.002;13.668;2022-10-16T06:38:40;99069.19;;;12.51;86.28
4024;BME280;2026;51.002;13.668;2022-10-16T06:43:43;99075.06;;;12.70;86.18
4024;BME280;2026;51.002;13.668;2022-10-16T06:48:48;99082.63;;;12.96;85.59
4024;BME280;2026;51.002;13.668;2022-10-16T06:53:53;99092.69;;;13.16;84.89
4024;BME280;2026;51.002;13.668;2022-10-16T06:59:05;99089.31;;;13.38;84.19
4024;BME280;2026;51.002;13.668;2022-10-16T07:04:10;99097.66;;;13.12;85.12
4024;BME280;2026;51.002;13.668;2022-10-16T07:09:13;99100.53;;;13.28;86.60
4024;BME280;2026;51.002;13.668;2022-10-16T07:14:18;99097.34;;;13.43;85.36
4024;BME280;2026;51.002;13.668;2022-10-16T07:19:22;99111.44;;;13.71;83.24
4024;BME280;2026;51.002;13.668;2022-10-16T07:24:31;99118.81;;;14.08;80.73
4024;BME280;2026;51.002;13.668;2022-10-16T07:29:34;99136.03;;;14.11;80.92
4024;BME280;2026;51.002;13.668;2022-10-16T07:34:38;99149.84;;;13.74;82.65
4024;BME280;2026;51.002;13.668;2022-10-16T07:39:41;99165.34;;;13.70;83.67
4024;BME280;2026;51.002;13.668;2022-10-16T07:44:44;99171.13;;;13.67;84.35
4024;BME280;2026;51.002;13.668;2022-10-16T07:49:49;99185.13;;;13.67;84.74
4024;BME280;2026;51.002;13.668;2022-10-16T07:54:52;99171.94;;;14.07;83.04
4024;BME280;2026;51.002;13.668;2022-10-16T07:59:56;99176.41;;;14.46;80.56
4024;BME280;2026;51.002;13.668;2022-10-16T08:05:00;99162.97;;;14.80;81.20
4024;BME280;2026;51.002;13.668;2022-10-16T08:10:04;99144.69;;;15.34;78.35
4024;BME280;2026;51.002;13.668;2022-10-16T08:15:09;99166.72;;;15.44;76.76
4024;BME280;2026;51.002;13.668;2022-10-16T08:20:13;99162.66;;;15.31;79.06
4024;BME280;2026;51.002;13.668;2022-10-16T08:25:17;99160.69;;;15.16;81.39
4024;BME280;2026;51.002;13.668;2022-10-16T08:30:21;99170.28;;;15.61;81.13
4024;BME280;2026;51.002;13.668;2022-10-16T08:35:27;99180.09;;;15.60;79.97
4024;BME280;2026;51.002;13.668;2022-10-16T08:40:32;99180.75;;;15.78;80.33
4024;BME280;2026;51.002;13.668;2022-10-16T08:45:43;99180.69;;;16.16;78.82
4024;BME280;2026;51.002;13.668;2022-10-16T08:50:54;99177.94;;;16.69;76.23
4024;BME280;2026;51.002;13.668;2022-10-16T08:55:57;99177.66;;;16.55;74.01
4024;BME280;2026;51.002;13.668;2022-10-16T09:01:03;99172.47;;;17.12;73.21
4024;BME280;2026;51.002;13.668;2022-10-16T09:06:13;99164.72;;;16.90;72.86
4024;BME280;2026;51.002;13.668;2022-10-16T09:11:29;99151.72;;;17.04;71.37
4024;BME280;2026;51.002;13.668;2022-10-16T09:16:39;99162.28;;;17.87;69.33
4024;BME280;2026;51.002;13.668;2022-10-16T09:21:46;99163.53;;;18.21;67.74
4024;BME280;2026;51.002;13.668;2022-10-16T09:26:50;99168.53;;;18.32;67.66
4024;BME280;2026;51.002;13.668;2022-10-16T09:31:55;99177.22;;;17.72;68.79
4024;BME280;2026;51.002;13.668;2022-10-16T09:37:13;99167.59;;;17.87;69.01
4024;BME280;2026;51.002;13.668;2022-10-16T09:42:18;99179.31;;;18.01;67.92
4024;BME280;2026;51.002;13.668;2022-10-16T09:47:24;99186.72;;;18.10;67.60
4024;BME280;2026;51.002;13.668;2022-10-16T09:52:30;99186.97;;;18.13;68.08
4024;BME280;2026;51.002;13.668;2022-10-16T09:57:34;99201.53;;;18.37;66.64
4024;BME280;2026;51.002;13.668;2022-10-16T10:02:37;99197.56;;;18.29;66.64
4024;BME280;2026;51.002;13.668;2022-10-16T10:07:43;99211.59;;;18.50;66.72
4024;BME280;2026;51.002;13.668;2022-10-16T10:12:48;99209.44;;;18.52;66.90
4024;BME280;2026;51.002;13.668;2022-10-16T10:17:52;99215.31;;;18.49;66.49
4024;BME280;2026;51.002;13.668;2022-10-16T10:22:57;99226.38;;;18.77;66.06
4024;BME280;2026;51.002;13.668;2022-10-16T10:28:16;99220.94;;;19.03;64.95
4024;BME280;2026;51.002;13.668;2022-10-16T10:33:26;99231.75;;;19.17;64.29
4024;BME280;2026;51.002;13.668;2022-10-16T10:38:41;99232.81;;;19.21;63.96
4024;BME280;2026;51.002;13.668;2022-10-16T10:43:55;99238.59;;;19.63;63.51
4024;BME280;2026;51.002;13.668;2022-10-16T10:49:13;99247.78;;;20.11;61.16
4024;BME280;2026;51.002;13.668;2022-10-16T10:54:27;99244.56;;;20.58;59.89
4024;BME280;2026;51.002;13.668;2022-10-16T10:59:50;99248.22;;;19.94;61.04
4024;BME280;2026;51.002;13.668;2022-10-16T11:05:21;99248.84;;;19.86;61.01
4024;BME280;2026;51.002;13.668;2022-10-16T11:10:30;99250.88;;;19.94;59.91
4024;BME280;2026;51.002;13.668;2022-10-16T11:15:36;99252.94;;;20.02;59.78
4024;BME280;2026;51.002;13.668;2022-10-16T11:20:44;99250.38;;;20.16;60.62
4024;BME280;2026;51.002;13.668;2022-10-16T11:25:51;99247.31;;;20.04;59.95
4024;BME280;2026;51.002;13.668;2022-10-16T11:31:00;99246.78;;;20.02;59.43
4024;BME280;2026;51.002;13.668;2022-10-16T11:36:10;99255.38;;;19.99;59.52
4024;BME280;2026;51.002;13.668;2022-10-16T11:41:22;99260.34;;;19.76;59.51
4024;BME280;2026;51.002;13.668;2022-10-16T11:46:27;99255.13;;;19.95;59.86
4024;BME280;2026;51.002;13.668;2022-10-16T11:51:36;99263.97;;;20.20;58.41
4024;BME280;2026;51.002;13.668;2022-10-16T11:56:44;99270.72;;;20.36;58.19
4024;BME280;2026;51.002;13.668;2022-10-16T12:01:51;99273.25;;;19.98;59.67
4024;BME280;2026;51.002;13.668;2022-10-16T12:07:01;99266.59;;;20.49;58.29
4024;BME280;2026;51.002;13.668;2022-10-16T12:12:26;99268.16;;;20.50;58.05
4024;BME280;2026;51.002;13.668;2022-10-16T12:17:36;99272.88;;;20.59;58.31
4024;BME280;2026;51.002;13.668;2022-10-16T12:22:41;99274.47;;;20.11;58.71
4024;BME280;2026;51.002;13.668;2022-10-16T12:28:00;99275.09;;;20.27;58.68
4024;BME280;2026;51.002;13.668;2022-10-16T12:33:05;99282.03;;;20.28;58.81
4024;BME280;2026;51.002;13.668;2022-10-16T12:38:16;99283.06;;;20.32;58.28
4024;BME280;2026;51.002;13.668;2022-10-16T12:43:36;99289.31;;;20.71;57.76
4024;BME280;2026;51.002;13.668;2022-10-16T12:48:42;99292.81;;;20.91;57.62
4024;BME280;2026;51.002;13.668;2022-10-16T12:54:13;99299.47;;;20.94;57.21
4024;BME280;2026;51.002;13.668;2022-10-16T12:59:25;99291.66;;;21.36;56.76
4024;BME280;2026;51.002;13.668;2022-10-16T13:04:53;99286.88;;;21.32;56.23
4024;BME280;2026;51.002;13.668;2022-10-16T13:10:10;99292.31;;;20.89;57.05
4024;BME280;2026;51.002;13.668;2022-10-16T13:15:31;99300.38;;;20.84;58.39
4024;BME280;2026;51.002;13.668;2022-10-16T13:20:50;99303.19;;;20.49;58.43
4024;BME280;2026;51.002;13.668;2022-10-16T13:26:08;99298.78;;;20.58;58.84
4024;BME280;2026;51.002;13.668;2022-10-16T13:31:20;99295.91;;;20.55;59.41
4024;BME280;2026;51.002;13.668;2022-10-16T13:36:25;99287.41;;;20.96;58.54
4024;BME280;2026;51.002;13.668;2022-10-16T13:41:29;99297.03;;;20.48;59.54
4024;BME280;2026;51.002;13.668;2022-10-16T13:46:33;99308.72;;;20.04;61.38
4024;BME280;2026;51.002;13.668;2022-10-16T13:51:36;99305.31;;;20.22;61.02
4024;BME280;2026;51.002;13.668;2022-10-16T13:56:39;99311.72;;;20.27;61.03
4024;BME280;2026;51.002;13.668;2022-10-16T14:01:44;99317.50;;;20.34;60.85
4024;BME280;2026;51.002;13.668;2022-10-16T14:06:49;99318.72;;;20.17;60.23
4024;BME280;2026;51.002;13.668;2022-10-16T14:11:55;99325.44;;;20.15;61.47
4024;BME280;2026;51.002;13.668;2022-10-16T14:17:02;99320.66;;;20.12;60.92
4024;BME280;2026;51.002;13.668;2022-10-16T14:22:28;99331.03;;;20.18;61.02
4024;BME280;2026;51.002;13.668;2022-10-16T14:27:34;99340.03;;;20.22;60.59
4024;BME280;2026;51.002;13.668;2022-10-16T14:32:40;99327.69;;;20.02;61.25
4024;BME280;2026;51.002;13.668;2022-10-16T14:37:44;99333.25;;;20.06;61.11
4024;BME280;2026;51.002;13.668;2022-10-16T14:42:47;99331.19;;;19.98;62.93
4024;BME280;2026;51.002;13.668;2022-10-16T14:47:53;99341.97;;;19.87;63.97
4024;BME280;2026;51.002;13.668;2022-10-16T14:52:58;99338.22;;;19.88;64.72
4024;BME280;2026;51.002;13.668;2022-10-16T14:58:01;99349.38;;;19.95;65.22
4024;BME280;2026;51.002;13.668;2022-10-16T15:03:06;99348.34;;;19.91;65.77
4024;BME280;2026;51.002;13.668;2022-10-16T15:08:09;99362.28;;;19.83;65.78
4024;BME280;2026;51.002;13.668;2022-10-16T15:13:12;99370.84;;;19.75;66.77
4024;BME280;2026;51.002;13.668;2022-10-16T15:18:17;99370.94;;;19.64;67.13
4024;BME280;2026;51.002;13.668;2022-10-16T15:23:22;99375.22;;;19.60;67.22
4024;BME280;2026;51.002;13.668;2022-10-16T15:28:30;99380.91;;;19.48;66.81
4024;BME280;2026;51.002;13.668;2022-10-16T15:33:34;99391.97;;;19.26;67.57
4024;BME280;2026;51.002;13.668;2022-10-16T15:38:40;99399.78;;;19.02;68.38
4024;BME280;2026;51.002;13.668;2022-10-16T15:43:43;99407.53;;;18.82;68.96
4024;BME280;2026;51.002;13.668;2022-10-16T15:48:50;99415.06;;;18.65;69.24
4024;BME280;2026;51.002;13.668;2022-10-16T15:53:53;99405.50;;;18.43;69.38
4024;BME280;2026;51.002;13.668;2022-10-16T15:58:56;99414.03;;;18.29;69.51
4024;BME280;2026;51.002;13.668;2022-10-16T16:04:01;99412.16;;;18.09;69.97
4024;BME280;2026;51.002;13.668;2022-10-16T16:09:16;99425.97;;;17.96;69.91
4024;BME280;2026;51.002;13.668;2022-10-16T16:14:19;99432.06;;;17.81;70.17
4024;BME280;2026;51.002;13.668;2022-10-16T16:19:23;99425.66;;;17.61;71.17
4024;BME280;2026;51.002;13.668;2022-10-16T16:24:26;99428.28;;;17.56;71.22
4024;BME280;2026;51.002;13.668;2022-10-16T16:29:29;99446.75;;;17.19;72.28
4024;BME280;2026;51.002;13.668;2022-10-16T16:34:34;99460.63;;;17.21;71.80
4024;BME280;2026;51.002;13.668;2022-10-16T16:39:37;99464.03;;;17.12;72.02
4024;BME280;2026;51.002;13.668;2022-10-16T16:44:40;99482.25;;;16.98;72.61
4024;BME280;2026;51.002;13.668;2022-10-16T16:49:44;99486.41;;;16.83;73.11
4024;BME280;2026;51.002;13.668;2022-10-16T16:54:48;99498.91;;;16.50;74.19
4024;BME280;2026;51.002;13.668;2022-10-16T16:59:53;99501.91;;;16.59;73.46
4024;BME280;2026;51.002;13.668;2022-10-16T17:04:58;99509.44;;;16.39;73.97
4024;BME280;2026;51.002;13.668;2022-10-16T17:10:01;99513.06;;;16.28;74.53
4024;BME280;2026;51.002;13.668;2022-10-16T17:15:04;99515.66;;;16.23;74.42
4024;BME280;2026;51.002;13.668;2022-10-16T17:20:09;99537.94;;;15.99;76.05
4024;BME280;2026;51.002;13.668;2022-10-16T17:25:12;99542.03;;;15.85;76.61
4024;BME280;2026;51.002;13.668;2022-10-16T17:30:15;99537.72;;;15.79;75.86
4024;BME280;2026;51.002;13.668;2022-10-16T17:35:20;99537.66;;;15.73;76.24
4024;BME280;2026;51.002;13.668;2022-10-16T17:40:24;99552.31;;;15.37;77.95
4024;BME280;2026;51.002;13.668;2022-10-16T17:45:27;99559.19;;;15.38;78.15
4024;BME280;2026;51.002;13.668;2022-10-16T17:50:32;99576.06;;;15.49;77.06
4024;BME280;2026;51.002;13.668;2022-10-16T17:55:37;99570.03;;;15.36;77.59
4024;BME280;2026;51.002;13.668;2022-10-16T18:00:40;99572.72;;;15.19;77.92
4024;BME280;2026;51.002;13.668;2022-10-16T18:05:44;99582.28;;;15.20;77.81
4024;BME280;2026;51.002;13.668;2022-10-16T18:10:48;99593.13;;;15.18;77.93
4024;BME280;2026;51.002;13.668;2022-10-16T18:15:58;99592.31;;;15.18;77.89
4024;BME280;2026;51.002;13.668;2022-10-16T18:21:04;99598.25;;;15.25;77.76
4024;BME280;2026;51.002;13.668;2022-10-16T18:26:09;99607.00;;;15.09;78.26
4024;BME280;2026;51.002;13.668;2022-10-16T18:31:14;99625.06;;;14.95;78.84
4024;BME280;2026;51.002;13.668;2022-10-16T18:36:21;99621.38;;;14.96;78.42
4024;BME280;2026;51.002;13.668;2022-10-16T18:41:25;99632.72;;;14.79;79.11
4024;BME280;2026;51.002;13.668;2022-10-16T18:46:28;99618.59;;;14.73;78.68
4024;BME280;2026;51.002;13.668;2022-10-16T18:51:35;99619.53;;;14.67;78.70
4024;BME280;2026;51.002;13.668;2022-10-16T18:56:38;99619.41;;;14.45;79.60
4024;BME280;2026;51.002;13.668;2022-10-16T19:01:42;99626.69;;;14.38;80.48
4024;BME280;2026;51.002;13.668;2022-10-16T19:06:48;99627.41;;;14.33;81.01
4024;BME280;2026;51.002;13.668;2022-10-16T19:11:51;99629.41;;;14.43;79.85
4024;BME280;2026;51.002;13.668;2022-10-16T19:16:55;99640.19;;;14.24;81.26
4024;BME280;2026;51.002;13.668;2022-10-16T19:21:59;99645.31;;;14.31;80.75
4024;BME280;2026;51.002;13.668;2022-10-16T19:27:14;99649.59;;;14.32;80.65
4024;BME280;2026;51.002;13.668;2022-10-16T19:32:17;99653.84;;;14.33;80.59
4024;BME280;2026;51.002;13.668;2022-10-16T19:37:22;99662.53;;;14.16;81.21
4024;BME280;2026;51.002;13.668;2022-10-16T19:42:26;99662.97;;;14.13;81.68
4024;BME280;2026;51.002;13.668;2022-10-16T19:47:30;99671.47;;;14.15;81.58
4024;BME280;2026;51.002;13.668;2022-10-16T19:52:35;99667.56;;;14.18;81.20
4024;BME280;2026;51.002;13.668;2022-10-16T19:57:38;99675.13;;;14.26;80.92
4024;BME280;2026;51.002;13.668;2022-10-16T20:02:41;99673.19;;;14.21;80.95
4024;BME280;2026;51.002;13.668;2022-10-16T20:07:46;99671.97;;;14.12;81.54
4024;BME280;2026;51.002;13.668;2022-10-16T20:12:49;99667.81;;;14.16;81.63
4024;BME280;2026;51.002;13.668;2022-10-16T20:17:52;99668.16;;;14.08;82.18
4024;BME280;2026;51.002;13.668;2022-10-16T20:22:56;99667.81;;;13.92;82.67
4024;BME280;2026;51.002;13.668;2022-10-16T20:27:59;99674.63;;;13.88;83.07
4024;BME280;2026;51.002;13.668;2022-10-16T20:33:02;99672.00;;;13.88;82.93
4024;BME280;2026;51.002;13.668;2022-10-16T20:38:06;99681.88;;;13.93;82.70
4024;BME280;2026;51.002;13.668;2022-10-16T20:43:11;99683.47;;;13.82;83.25
4024;BME280;2026;51.002;13.668;2022-10-16T20:48:14;99684.16;;;13.77;83.69
4024;BME280;2026;51.002;13.668;2022-10-16T20:53:18;99688.19;;;13.80;83.40
4024;BME280;2026;51.002;13.668;2022-10-16T20:58:21;99697.50;;;13.83;82.97
4024;BME280;2026;51.002;13.668;2022-10-16T21:03:24;99698.56;;;13.82;82.47
4024;BME280;2026;51.002;13.668;2022-10-16T21:08:29;99709.22;;;13.75;82.21
4024;BME280;2026;51.002;13.668;2022-10-16T21:13:32;99710.91;;;13.57;82.83
4024;BME280;2026;51.002;13.668;2022-10-16T21:18:35;99725.50;;;13.48;83.23
4024;BME280;2026;51.002;13.668;2022-10-16T21:23:46;99724.56;;;13.42;82.65
4024;BME280;2026;51.002;13.668;2022-10-16T21:28:49;99731.88;;;13.28;82.63
4024;BME280;2026;51.002;13.668;2022-10-16T21:33:52;99740.84;;;13.27;82.33
4024;BME280;2026;51.002;13.668;2022-10-16T21:39:00;99735.97;;;13.12;83.00
4024;BME280;2026;51.002;13.668;2022-10-16T21:44:05;99740.59;;;13.17;83.68
4024;BME280;2026;51.002;13.668;2022-10-16T21:49:10;99734.22;;;13.06;83.13
4024;BME280;2026;51.002;13.668;2022-10-16T21:54:17;99726.97;;;13.01;82.57
4024;BME280;2026;51.002;13.668;2022-10-16T21:59:20;99737.34;;;12.84;83.93
4024;BME280;2026;51.002;13.668;2022-10-16T22:04:23;99740.66;;;12.79;83.94
4024;BME280;2026;51.002;13.668;2022-10-16T22:09:27;99739.06;;;12.78;83.85
4024;BME280;2026;51.002;13.668;2022-10-16T22:14:30;99739.84;;;12.79;83.73
4024;BME280;2026;51.002;13.668;2022-10-16T22:19:33;99745.06;;;12.67;84.05
4024;BME280;2026;51.002;13.668;2022-10-16T22:24:37;99749.34;;;12.68;83.69
4024;BME280;2026;51.002;13.668;2022-10-16T22:29:40;99758.25;;;12.67;83.71
4024;BME280;2026;51.002;13.668;2022-10-16T22:34:43;99760.81;;;12.55;83.80
4024;BME280;2026;51.002;13.668;2022-10-16T22:39:48;99755.53;;;12.55;84.02
4024;BME280;2026;51.002;13.668;2022-10-16T22:44:51;99755.91;;;12.58;83.97
4024;BME280;2026;51.002;13.668;2022-10-16T22:49:54;99748.44;;;12.55;83.61
4024;BME280;2026;51.002;13.668;2022-10-16T22:54:58;99749.97;;;12.44;84.72
4024;BME280;2026;51.002;13.668;2022-10-16T23:00:01;99749.72;;;12.27;86.04
4024;BME280;2026;51.002;13.668;2022-10-16T23:05:06;99759.84;;;12.30;85.26
4024;BME280;2026;51.002;13.668;2022-10-16T23:10:10;99765.25;;;12.36;85.21
4024;BME280;2026;51.002;13.668;2022-10-16T23:15:13;99763.28;;;12.31;85.16
4024;BME280;2026;51.002;13.668;2022-10-16T23:20:16;99762.69;;;12.29;85.41
4024;BME280;2026;51.002;13.668;2022-10-16T23:25:20;99764.25;;;12.37;84.68
4024;BME280;2026;51.002;13.668;2022-10-16T23:30:23;99772.47;;;12.28;85.16
4024;BME280;2026;51.002;13.668;2022-10-16T23:35:26;99769.66;;;12.23;84.53
4024;BME280;2026;51.002;13.668;2022-10-16T23:40:31;99779.53;;;12.09;85.23
4024;BME280;2026;51.002;13.668;2022-10-16T23:45:34;99775.41;;;12.13;84.47
4024;BME280;2026;51.002;13.668;2022-10-16T23:50:37;99782.53;;;12.13;84.22
4024;BME280;2026;51.002;13.668;2022-10-16T23:55:41;99771.53;;;11.97;85.39
